Ask Your Question

IvanV's profile - karma

IvanV's karma change log

10 0 How can generate a list of dependencies from the src folder of a workspace? ( 2019-07-01 08:08:49 -0600 )

10 0 How can generate a list of dependencies from the src folder of a workspace? ( 2019-04-12 13:47:27 -0600 )

10 0 teb_local_planner: avoid constant path replanning ( 2018-11-13 23:12:49 -0600 )

10 0 DWA local planner fails to produce path ( 2018-09-14 17:30:18 -0600 )

10 0 How can generate a list of dependencies from the src folder of a workspace? ( 2018-04-05 14:35:08 -0600 )

15 0 How to clear the traces of the dynamic obstacle in a costmap? ( 2017-12-11 02:05:09 -0600 )

0 -15 How to clear the traces of the dynamic obstacle in a costmap? ( 2017-12-11 02:05:08 -0600 )

15 0 How to clear the traces of the dynamic obstacle in a costmap? ( 2017-12-11 02:05:07 -0600 )

2 0 Importing services declared in the same package in python and catkin ( 2017-11-07 10:23:01 -0600 )

10 0 robot_localization using UTM grid as map ( 2017-01-19 18:49:20 -0600 )

10 0 How can generate a list of dependencies from the src folder of a workspace? ( 2017-01-11 12:30:41 -0600 )

10 0 Importing services declared in the same package in python and catkin ( 2016-06-20 17:43:18 -0600 )

10 0 RVIZ drops 100% of messages ( 2016-05-04 09:39:22 -0600 )

10 0 DWAPlannerROS making spiral trajectory while following global path ( 2016-04-28 02:31:17 -0600 )

0 -10 DWAPlannerROS making spiral trajectory while following global path ( 2016-04-28 02:31:15 -0600 )

10 0 DWAPlannerROS making spiral trajectory while following global path ( 2016-04-28 02:31:13 -0600 )

10 0 Importing services declared in the same package in python and catkin ( 2016-02-24 00:27:31 -0600 )

15 0 how do I improve the steam video speed in ROS ( 2015-03-11 06:06:05 -0600 )

10 0 Using simple_navigation_goals ( 2015-03-09 13:33:10 -0600 )

15 0 Using simple_navigation_goals ( 2015-03-09 13:33:08 -0600 )

2 0 Modify Rviz fixed frame from ros node ( 2015-03-04 04:05:24 -0600 )

0 -10 No link between publisher and subscriber nodes ( 2015-02-17 02:18:33 -0600 )

10 0 No link between publisher and subscriber nodes ( 2015-02-17 02:18:17 -0600 )

0 -10 No link between publisher and subscriber nodes ( 2015-02-17 02:18:14 -0600 )

10 0 No link between publisher and subscriber nodes ( 2015-02-17 02:18:06 -0600 )

10 0 tf static_transform_publisher breaks laser ( 2014-12-04 05:46:34 -0600 )

15 0 tf static_transform_publisher breaks laser ( 2014-11-25 15:36:31 -0600 )

2 0 robot_localization using UTM grid as map ( 2014-11-17 09:58:51 -0600 )

10 0 robot_localization using UTM grid as map ( 2014-11-14 06:59:52 -0600 )

10 0 robot_localization using UTM grid as map ( 2014-11-13 12:51:02 -0600 )

10 0 robot_localization using UTM grid as map ( 2014-11-13 08:36:41 -0600 )

15 0 Question about the input of libviso2 ( 2014-11-13 06:41:29 -0600 )

2 0 robot_localization 2nd instance not publishing map->odom transform ( 2014-11-13 06:06:39 -0600 )

10 0 tf static_transform_publisher breaks laser ( 2014-11-12 10:53:30 -0600 )